Time;durP1;ratioP1;P1;durP2;ratioP2;P2;SDS_P1;SDS_P2;PMS_P1;PMS_P2;Temp;Humidity;BMP_temperature;BMP_pressure;BME280_temperature;BME280_humidity;BME280_pressure;Samples;Min_cycle;Max_cycle;Signal;HPM_P1;HPM_P2
2023/11/22 00:00:12;;;;;;;23.25;11.20;;;;;;;-146.25;100.00;52629.75;2088461;28;35458;-72
2023/11/22 00:01:14;;;;;;;23.00;11.85;;;;;;;-146.25;100.00;52660.19;2087952;28;34735;-72
2023/11/22 00:02:17;;;;;;;24.33;11.48;;;;;;;-146.25;100.00;52650.03;2087911;28;36308;-72
2023/11/22 00:03:19;;;;;;;23.05;11.65;;;;;;;-146.25;100.00;52629.75;2088728;28;37930;-72
2023/11/22 00:04:21;;;;;;;22.92;11.38;;;;;;;-146.25;100.00;52639.91;2088869;28;20119;-72
2023/11/22 00:05:22;;;;;;;22.33;12.23;;;;;;;-146.25;100.00;52670.31;2088129;28;35944;-72
2023/11/22 00:06:24;;;;;;;21.70;12.02;;;;;;;-146.25;100.00;52658.16;2088983;28;37093;-72
2023/11/22 00:07:29;;;;;;;24.25;12.65;;;;;;;-146.25;100.00;52660.19;2088705;28;32627;-73
2023/11/22 00:08:31;;;;;;;28.15;12.75;;;;;;;-146.25;100.00;52672.34;2088312;28;35952;-73
2023/11/22 00:09:32;;;;;;;34.80;12.93;;;;;;;-146.25;100.00;52631.78;2088317;28;33034;-72
2023/11/22 00:10:34;;;;;;;26.77;12.60;;;;;;;-146.25;100.00;52656.13;2088644;28;20041;-72
2023/11/22 00:11:36;;;;;;;25.23;13.40;;;;;;;-146.25;100.00;52625.72;2088482;28;37779;-73
2023/11/22 00:12:38;;;;;;;23.73;12.07;;;;;;;-146.25;100.00;52631.78;2089013;28;33365;-72
2023/11/22 00:13:40;;;;;;;23.85;11.55;;;;;;;-146.25;100.00;52633.81;2088770;28;35388;-73
2023/11/22 00:14:42;;;;;;;17.95;10.95;;;;;;;-146.25;100.00;52627.75;2089468;28;20656;-72
2023/11/22 00:15:44;;;;;;;27.33;12.55;;;;;;;-146.25;100.00;52631.78;2088750;28;30040;-72
2023/11/22 00:16:46;;;;;;;25.20;13.20;;;;;;;-146.25;100.00;52631.78;2088393;28;35026;-73
2023/11/22 00:17:48;;;;;;;29.92;13.20;;;;;;;-146.25;100.00;52621.66;2088805;28;36985;-73
2023/11/22 00:18:50;;;;;;;25.50;12.05;;;;;;;-146.25;100.00;52674.38;2088460;28;20049;-72
2023/11/22 00:19:51;;;;;;;28.20;13.80;;;;;;;-146.25;100.00;52619.63;2087809;28;36146;-72
2023/11/22 00:20:54;;;;;;;23.20;12.18;;;;;;;-146.25;100.00;52652.06;2089226;28;35448;-72
2023/11/22 00:21:56;;;;;;;24.13;13.00;;;;;;;-146.25;100.00;52631.78;2088787;28;34365;-73
2023/11/22 00:22:58;;;;;;;23.85;12.35;;;;;;;-146.25;100.00;52631.78;2088345;28;36320;-72
2023/11/22 00:24:00;;;;;;;25.50;13.50;;;;;;;-146.25;100.00;52662.22;2088754;28;21011;-73
2023/11/22 00:25:02;;;;;;;28.35;14.15;;;;;;;-146.25;100.00;52692.63;2088412;28;38087;-72
2023/11/22 00:26:06;;;;;;;26.95;14.05;;;;;;;-146.25;100.00;52648.00;2088001;28;37468;-72
2023/11/22 00:27:08;;;;;;;27.45;14.10;;;;;;;-146.25;100.00;52617.59;2088790;28;20982;-72
2023/11/22 00:28:11;;;;;;;31.70;14.93;;;;;;;-146.25;100.00;52635.84;2089580;28;27889;-72
2023/11/22 00:29:13;;;;;;;32.10;14.20;;;;;;;-146.25;100.00;52648.00;2088986;28;22886;-72
2023/11/22 00:30:15;;;;;;;32.97;15.07;;;;;;;-146.25;100.00;52674.38;2088456;28;20056;-73
2023/11/22 00:31:17;;;;;;;28.90;14.48;;;;;;;-146.25;100.00;52625.72;2087904;28;31992;-73
2023/11/22 00:32:19;;;;;;;30.80;14.65;;;;;;;-146.25;100.00;52645.97;2089194;28;22417;-73
2023/11/22 00:33:21;;;;;;;33.30;14.27;;;;;;;-146.25;100.00;52611.50;2089457;28;20034;-73
2023/11/22 00:34:23;;;;;;;31.38;14.63;;;;;;;-146.25;100.00;52660.19;2088666;28;33328;-72
2023/11/22 00:35:24;;;;;;;32.33;13.65;;;;;;;-146.25;100.00;52676.41;2088036;28;28315;-72
2023/11/22 00:36:26;;;;;;;27.67;14.88;;;;;;;-146.25;100.00;52652.06;2088274;28;23094;-73
2023/11/22 00:37:28;;;;;;;28.27;14.05;;;;;;;-146.25;100.00;52660.19;2089034;28;28377;-72
2023/11/22 00:38:30;;;;;;;23.92;13.30;;;;;;;-146.25;100.00;52643.97;2089094;28;20101;-73
2023/11/22 00:39:32;;;;;;;26.98;13.27;;;;;;;-146.25;100.00;52670.31;2087510;28;30777;-73
2023/11/22 00:40:33;;;;;;;25.73;13.32;;;;;;;-146.25;100.00;52678.44;2079868;28;29630;-73
2023/11/22 00:41:35;;;;;;;24.40;12.45;;;;;;;-146.25;100.00;52648.00;2088347;28;28544;-73
2023/11/22 00:42:42;;;;;;;24.92;12.95;;;;;;;-146.25;100.00;52660.19;2087861;28;27240;-73
2023/11/22 00:43:44;;;;;;;26.70;12.75;;;;;;;-146.25;100.00;52625.72;2089160;28;23658;-71
2023/11/22 00:44:47;;;;;;;25.83;12.23;;;;;;;-146.25;100.00;52670.31;2087821;28;25958;-69
2023/11/22 00:45:49;;;;;;;23.45;10.52;;;;;;;-146.25;100.00;52650.03;2080212;28;31018;-73
2023/11/22 00:46:50;;;;;;;19.00;10.90;;;;;;;-146.25;100.00;52645.97;2087928;28;26105;-74
2023/11/22 00:47:54;;;;;;;22.08;11.38;;;;;;;-146.25;100.00;52643.97;2088732;28;29322;-73
2023/11/22 00:48:56;;;;;;;21.08;11.18;;;;;;;-146.25;100.00;52676.41;2088084;28;31015;-73
2023/11/22 00:49:59;;;;;;;25.65;12.38;;;;;;;-146.25;100.00;52637.88;2089300;28;20034;-72
2023/11/22 00:51:07;;;;;;;24.38;11.45;;;;;;;-146.25;100.00;52627.75;2088395;28;33267;-73
2023/11/22 00:52:09;;;;;;;20.63;12.13;;;;;;;-146.25;100.00;52635.84;2089173;28;20038;-73
2023/11/22 00:53:10;;;;;;;18.83;11.07;;;;;;;-146.25;100.00;52652.06;2088672;28;23518;-74
2023/11/22 00:54:12;;;;;;;22.60;11.05;;;;;;;-146.25;100.00;52668.28;2088930;28;30471;-73
2023/11/22 00:55:14;;;;;;;23.65;11.23;;;;;;;-146.25;100.00;52672.34;2088366;28;32668;-74
2023/11/22 00:56:16;;;;;;;23.05;12.32;;;;;;;-146.25;100.00;52662.22;2079929;28;21592;-73
2023/11/22 00:57:18;;;;;;;25.05;11.98;;;;;;;-146.25;100.00;52623.69;2080315;28;25472;-74
2023/11/22 00:58:19;;;;;;;24.17;11.85;;;;;;;-146.25;100.00;52660.19;2088800;28;31164;-73
2023/11/22 00:59:22;;;;;;;24.92;11.60;;;;;;;-146.25;100.00;52591.25;2088680;28;20046;-74
2023/11/22 01:00:24;;;;;;;21.17;11.50;;;;;;;-146.25;100.00;52615.56;2088053;28;27758;-73
2023/11/22 01:01:26;;;;;;;22.88;11.35;;;;;;;-146.25;100.00;52619.63;2087484;28;29939;-73
2023/11/22 01:02:28;;;;;;;26.23;12.43;;;;;;;-146.25;100.00;52633.81;2088885;28;27865;-73
2023/11/22 01:03:33;;;;;;;22.48;11.40;;;;;;;-146.25;100.00;52615.56;2088357;28;32232;-74
2023/11/22 01:04:36;;;;;;;23.48;11.48;;;;;;;-146.25;100.00;52617.59;2088955;28;20247;-73
2023/11/22 01:05:38;;;;;;;26.48;12.15;;;;;;;-146.25;100.00;52652.06;2088201;28;30199;-74
2023/11/22 01:06:42;;;;;;;23.35;12.25;;;;;;;-146.25;100.00;52645.97;2087847;28;27131;-73
2023/11/22 01:07:44;;;;;;;27.83;13.10;;;;;;;-146.25;100.00;52700.72;2087514;28;29559;-73
2023/11/22 01:08:47;;;;;;;27.92;13.52;;;;;;;-146.25;100.00;52678.44;2088033;28;28392;-73
2023/11/22 01:09:49;;;;;;;27.55;13.23;;;;;;;-146.25;100.00;52597.31;2079560;28;27158;-74
2023/11/22 01:10:53;;;;;;;23.67;12.00;;;;;;;-146.25;100.00;52625.72;2080468;28;20049;-73
2023/11/22 01:11:55;;;;;;;30.00;13.38;;;;;;;-146.25;100.00;52658.16;2095495;28;29014;-74
2023/11/22 01:12:59;;;;;;;29.58;13.20;;;;;;;-146.25;100.00;52635.84;2088128;28;27117;-74
2023/11/22 01:14:02;;;;;;;26.17;13.00;;;;;;;-146.25;100.00;52688.56;2088175;28;25949;-74
2023/11/22 01:15:05;;;;;;;24.67;12.80;;;;;;;-146.25;100.00;52654.09;2088420;28;29609;-73
2023/11/22 01:16:13;;;;;;;23.83;11.70;;;;;;;-146.25;100.00;52619.63;2088244;28;20095;-74
2023/11/22 01:17:14;;;;;;;23.73;11.68;;;;;;;-146.25;100.00;52635.84;2088049;28;20068;-74
2023/11/22 01:18:16;;;;;;;24.17;12.50;;;;;;;-146.25;100.00;52688.56;2088106;28;32843;-74
2023/11/22 01:19:18;;;;;;;25.77;12.50;;;;;;;-146.25;100.00;52656.13;2088576;28;26971;-72
2023/11/22 01:20:22;;;;;;;27.05;12.65;;;;;;;-146.25;100.00;52641.94;2088499;28;31928;-74
2023/11/22 01:21:25;;;;;;;25.13;11.95;;;;;;;-146.25;100.00;52645.97;2088191;28;29233;-73
2023/11/22 01:22:27;;;;;;;27.02;12.18;;;;;;;-146.25;100.00;52629.75;2087562;28;28901;-73
2023/11/22 01:23:30;;;;;;;21.35;11.32;;;;;;;-146.25;100.00;52629.75;2088338;28;20469;-73
2023/11/22 01:24:31;;;;;;;28.75;12.73;;;;;;;-146.25;100.00;52668.28;2088019;28;28881;-74
2023/11/22 01:25:33;;;;;;;29.80;13.43;;;;;;;-146.25;100.00;52637.88;2088700;28;29052;-73
2023/11/22 01:26:35;;;;;;;26.75;12.75;;;;;;;-146.25;100.00;52662.22;2087782;28;24085;-74
2023/11/22 01:27:38;;;;;;;26.33;12.75;;;;;;;-146.25;100.00;52660.19;2088104;28;35774;-73
2023/11/22 01:28:44;;;;;;;27.88;13.10;;;;;;;-146.25;100.00;52656.13;2088829;28;20076;-74
2023/11/22 01:29:46;;;;;;;24.20;11.65;;;;;;;-146.25;100.00;52652.06;2087290;28;30458;-74
2023/11/22 01:30:49;;;;;;;25.70;12.73;;;;;;;-146.25;100.00;52633.81;2087866;28;31136;-74
2023/11/22 01:31:50;;;;;;;29.63;14.02;;;;;;;-146.25;100.00;52635.84;2087352;28;20582;-74
2023/11/22 01:32:52;;;;;;;26.17;13.27;;;;;;;-146.25;100.00;52654.09;2079501;28;29305;-74
2023/11/22 01:33:54;;;;;;;27.27;13.43;;;;;;;-146.25;100.00;52662.22;2087553;28;36632;-73
2023/11/22 01:34:58;;;;;;;30.67;13.70;;;;;;;-146.25;100.00;52643.97;2088207;28;28668;-74
2023/11/22 01:36:00;;;;;;;27.95;13.77;;;;;;;-146.25;100.00;52672.34;2087628;28;26458;-74
2023/11/22 01:37:03;;;;;;;24.40;13.18;;;;;;;-146.25;100.00;52611.50;2079216;28;29036;-74
2023/11/22 01:38:05;;;;;;;30.35;13.00;;;;;;;-146.25;100.00;52658.16;2087687;28;29672;-73
2023/11/22 01:39:07;;;;;;;26.50;13.38;;;;;;;-146.25;100.00;52660.19;2087950;28;33887;-74
2023/11/22 01:40:09;;;;;;;28.15;13.48;;;;;;;-146.25;100.00;52599.34;2088530;28;21706;-74
2023/11/22 01:41:13;;;;;;;26.67;12.38;;;;;;;-146.25;100.00;52645.97;2087576;28;26023;-74
2023/11/22 01:42:15;;;;;;;28.08;13.15;;;;;;;-146.25;100.00;52684.50;2087915;28;20084;-74
2023/11/22 01:43:19;;;;;;;28.27;13.60;;;;;;;-146.25;100.00;52611.50;2088575;28;20139;-74
2023/11/22 01:44:21;;;;;;;29.88;13.32;;;;;;;-146.25;100.00;52648.00;2088366;28;26812;-74
2023/11/22 01:45:23;;;;;;;31.70;12.70;;;;;;;-146.25;100.00;52631.78;2089022;28;21028;-73
2023/11/22 01:46:25;;;;;;;23.92;12.02;;;;;;;-146.25;100.00;52631.78;2087883;28;28088;-74
2023/11/22 01:47:28;;;;;;;25.20;13.20;;;;;;;-146.25;100.00;52631.78;2088297;28;32950;-74
2023/11/22 01:48:32;;;;;;;25.08;13.68;;;;;;;-146.25;100.00;52668.28;2079824;28;27729;-74
2023/11/22 01:49:35;;;;;;;28.35;12.48;;;;;;;-146.25;100.00;52607.47;2079588;28;20042;-75
2023/11/22 01:50:40;;;;;;;28.67;12.68;;;;;;;-146.25;100.00;52635.84;2063884;28;31738;-74
2023/11/22 01:51:42;;;;;;;29.38;12.82;;;;;;;-146.25;100.00;52648.00;2080448;28;29472;-74
2023/11/22 01:52:49;;;;;;;24.60;11.73;;;;;;;-146.25;100.00;52656.13;2088597;28;20175;-73
2023/11/22 01:53:54;;;;;;;22.05;11.85;;;;;;;-146.25;100.00;52607.47;2095659;28;25652;-74
2023/11/22 01:54:56;;;;;;;24.77;12.60;;;;;;;-146.25;100.00;52648.00;2079423;28;24313;-73
2023/11/22 01:55:58;;;;;;;26.70;12.00;;;;;;;-146.25;100.00;52639.91;2080409;28;27032;-74
2023/11/22 01:57:01;;;;;;;26.98;12.95;;;;;;;-146.25;100.00;52680.47;2087953;28;20472;-73
2023/11/22 01:58:03;;;;;;;30.90;13.40;;;;;;;-146.25;100.00;52648.00;2079809;28;20050;-73
2023/11/22 01:59:07;;;;;;;27.13;12.65;;;;;;;-146.25;100.00;52625.72;2072032;28;20989;-73
2023/11/22 02:00:14;;;;;;;25.33;11.77;;;;;;;-146.25;100.00;52629.75;2079948;28;20042;-72
2023/11/22 02:01:17;;;;;;;24.77;12.45;;;;;;;-146.25;100.00;52635.84;2087774;28;20159;-74
2023/11/22 02:02:22;;;;;;;22.15;11.40;;;;;;;-146.25;100.00;52674.38;2088355;28;20046;-73
2023/11/22 02:03:24;;;;;;;28.00;13.02;;;;;;;-146.25;100.00;52617.59;2087740;28;20111;-73
2023/11/22 02:04:26;;;;;;;29.23;12.63;;;;;;;-146.25;100.00;52633.81;2071065;28;30215;-73
2023/11/22 02:05:28;;;;;;;29.63;12.52;;;;;;;-146.25;100.00;52668.28;2079663;28;32534;-74
2023/11/22 02:06:31;;;;;;;28.08;12.15;;;;;;;-146.25;100.00;52641.94;2088001;28;20037;-73
2023/11/22 02:07:34;;;;;;;30.27;12.35;;;;;;;-146.25;100.00;52645.97;2087944;28;20914;-73
2023/11/22 02:08:36;;;;;;;29.75;12.88;;;;;;;-146.25;100.00;52611.50;2087727;28;23224;-73
2023/11/22 02:09:37;;;;;;;25.83;12.20;;;;;;;-146.25;100.00;52662.22;2087764;28;20038;-74
2023/11/22 02:10:44;;;;;;;26.83;12.90;;;;;;;-146.25;100.00;52639.91;2088640;28;20229;-73
2023/11/22 02:11:49;;;;;;;24.70;11.70;;;;;;;-146.25;100.00;52648.00;2087403;28;20187;-73
2023/11/22 02:12:51;;;;;;;23.10;10.75;;;;;;;-146.25;100.00;52635.84;2088042;28;20167;-73
2023/11/22 02:13:52;;;;;;;26.02;11.77;;;;;;;-146.25;100.00;52607.47;2087464;28;20050;-72
2023/11/22 02:14:55;;;;;;;24.83;11.90;;;;;;;-146.25;100.00;52633.81;2079403;28;20042;-73
2023/11/22 02:15:59;;;;;;;24.95;12.00;;;;;;;-146.25;100.00;52611.50;2079512;28;20045;-73
2023/11/22 02:17:01;;;;;;;26.77;12.32;;;;;;;-146.25;100.00;52627.75;2079594;28;25077;-72
2023/11/22 02:18:05;;;;;;;32.80;13.45;;;;;;;-146.25;100.00;52637.88;2079422;28;27570;-71
2023/11/22 02:19:16;;;;;;;25.88;12.32;;;;;;;-146.25;100.00;52635.84;2080392;28;20100;-71
2023/11/22 02:20:18;;;;;;;25.77;11.85;;;;;;;-146.25;100.00;52641.94;2072065;28;25828;-73
2023/11/22 02:21:21;;;;;;;28.02;12.73;;;;;;;-146.25;100.00;52648.00;2071878;28;20074;-72
2023/11/22 02:22:24;;;;;;;27.55;12.75;;;;;;;-146.25;100.00;52599.34;2079983;28;20081;-72
2023/11/22 02:23:26;;;;;;;31.20;14.25;;;;;;;-146.25;100.00;52652.06;2086984;28;34727;-71
2023/11/22 02:24:33;;;;;;;29.52;13.15;;;;;;;-146.25;100.00;52658.16;2086850;28;31846;-72
2023/11/22 02:25:35;;;;;;;29.33;13.23;;;;;;;-146.25;100.00;52641.94;2087628;28;34521;-72
2023/11/22 02:26:38;;;;;;;30.08;13.25;;;;;;;-146.25;100.00;52650.03;2087790;28;31286;-72
2023/11/22 02:27:39;;;;;;;31.20;14.15;;;;;;;-146.25;100.00;52650.03;2088249;28;29062;-72
2023/11/22 02:28:41;;;;;;;30.52;13.00;;;;;;;-146.25;100.00;52641.94;2088300;28;23352;-72
2023/11/22 02:29:45;;;;;;;29.98;13.40;;;;;;;-146.25;100.00;52637.88;2087817;28;35112;-71
2023/11/22 02:30:47;;;;;;;28.92;12.73;;;;;;;-146.25;100.00;52643.97;2087559;28;20238;-71
2023/11/22 02:31:49;;;;;;;30.70;12.88;;;;;;;-146.25;100.00;52662.22;2087258;28;29571;-72
2023/11/22 02:32:51;;;;;;;25.20;11.23;;;;;;;-146.25;100.00;52684.50;2087919;28;27083;-72
2023/11/22 02:33:55;;;;;;;25.90;12.45;;;;;;;-146.25;100.00;52639.91;2087551;28;22464;-71
2023/11/22 02:34:56;;;;;;;27.33;12.93;;;;;;;-146.25;100.00;52635.84;2087570;28;27579;-72
2023/11/22 02:35:58;;;;;;;27.02;12.43;;;;;;;-146.25;100.00;52658.16;2088090;28;30344;-71
2023/11/22 02:37:04;;;;;;;24.42;11.65;;;;;;;-146.25;100.00;52619.63;2087941;28;31950;-72
2023/11/22 02:38:06;;;;;;;20.95;10.80;;;;;;;-146.25;100.00;52637.88;2088187;28;20042;-71
2023/11/22 02:39:11;;;;;;;27.10;11.75;;;;;;;-146.25;100.00;52660.19;2087646;28;20971;-68
2023/11/22 02:40:22;;;;;;;29.10;12.15;;;;;;;-146.25;100.00;52648.00;2087693;28;20034;-71
2023/11/22 02:41:25;;;;;;;28.27;13.05;;;;;;;-146.25;100.00;52645.97;2079139;28;32486;-71
2023/11/22 02:42:26;;;;;;;24.52;11.70;;;;;;;-146.25;100.00;52650.03;2079001;28;25317;-71
2023/11/22 02:43:28;;;;;;;27.27;13.13;;;;;;;-146.25;100.00;52652.06;2087507;28;30779;-71
2023/11/22 02:44:31;;;;;;;23.27;12.20;;;;;;;-146.25;100.00;52668.28;2088496;28;20030;-71
2023/11/22 02:45:34;;;;;;;24.13;11.50;;;;;;;-146.25;100.00;52654.09;2088278;28;20099;-71
2023/11/22 02:46:36;;;;;;;22.33;11.13;;;;;;;-146.25;100.00;52643.97;2087539;28;29001;-71
2023/11/22 02:47:38;;;;;;;32.50;13.73;;;;;;;-146.25;100.00;52660.19;2088415;28;23588;-71
2023/11/22 02:48:40;;;;;;;28.98;12.98;;;;;;;-146.25;100.00;52631.78;2087996;28;33946;-71
2023/11/22 02:49:41;;;;;;;22.88;11.43;;;;;;;-146.25;100.00;52635.84;2087841;28;28280;-71
2023/11/22 02:50:44;;;;;;;29.33;12.65;;;;;;;-146.25;100.00;52621.66;2088081;28;31316;-69
2023/11/22 02:51:46;;;;;;;27.10;12.00;;;;;;;-146.25;100.00;52652.06;2087577;28;20054;-70
2023/11/22 02:52:51;;;;;;;30.67;13.82;;;;;;;-146.25;100.00;52656.13;2079190;28;20045;-70
2023/11/22 02:53:54;;;;;;;29.48;13.73;;;;;;;-146.25;100.00;52656.13;2086755;28;27637;-70
2023/11/22 02:54:56;;;;;;;31.98;14.52;;;;;;;-146.25;100.00;52652.06;2087950;28;24243;-71
2023/11/22 02:56:01;;;;;;;30.67;14.00;;;;;;;-146.25;100.00;52607.47;2087726;28;26369;-71
2023/11/22 02:57:03;;;;;;;29.42;13.98;;;;;;;-146.25;100.00;52627.75;2087561;28;31042;-69
2023/11/22 02:58:06;;;;;;;31.23;13.73;;;;;;;-146.25;100.00;52619.63;2088907;28;20842;-70
2023/11/22 02:59:13;;;;;;;25.65;12.65;;;;;;;-146.25;100.00;52650.03;2086744;28;28653;-70
2023/11/22 03:00:15;;;;;;;29.65;15.00;;;;;;;-146.25;100.00;52676.41;2086714;28;32129;-70
2023/11/22 03:01:17;;;;;;;32.90;14.07;;;;;;;-146.25;100.00;52648.00;2079955;28;20038;-70
2023/11/22 03:02:20;;;;;;;36.50;15.90;;;;;;;-146.25;100.00;52617.59;2079960;28;21045;-69
2023/11/22 03:03:23;;;;;;;30.50;14.50;;;;;;;-146.25;100.00;52609.50;2079775;28;29881;-70
2023/11/22 03:04:25;;;;;;;35.58;14.70;;;;;;;-146.25;100.00;52631.78;2080105;28;20134;-70
2023/11/22 03:05:27;;;;;;;29.38;14.23;;;;;;;-146.25;100.00;52656.13;2079630;28;27180;-70
2023/11/22 03:06:31;;;;;;;33.83;14.57;;;;;;;-146.25;100.00;52619.63;2080331;28;20042;-70
2023/11/22 03:07:33;;;;;;;30.50;13.88;;;;;;;-146.25;100.00;52637.88;2078604;28;26174;-70
2023/11/22 03:08:35;;;;;;;33.13;14.77;;;;;;;-146.25;100.00;52639.91;2070890;28;30112;-69
2023/11/22 03:09:36;;;;;;;36.95;15.13;;;;;;;-146.25;100.00;52648.00;2078995;28;27659;-70
2023/11/22 03:10:38;;;;;;;35.55;16.17;;;;;;;-146.25;100.00;52654.09;2079208;28;21032;-71
2023/11/22 03:11:40;;;;;;;35.88;15.48;;;;;;;-146.25;100.00;52633.81;2079560;28;20037;-70
2023/11/22 03:12:43;;;;;;;31.40;14.85;;;;;;;-146.25;100.00;52615.56;2087209;28;24409;-70
2023/11/22 03:13:49;;;;;;;34.90;14.63;;;;;;;-146.25;100.00;52672.34;2078890;28;29103;-70
2023/11/22 03:14:50;;;;;;;36.67;15.60;;;;;;;-146.25;100.00;52652.06;2078518;28;34032;-69
2023/11/22 03:15:55;;;;;;;35.63;14.27;;;;;;;-146.25;100.00;52633.81;2079218;28;22596;-70
2023/11/22 03:16:57;;;;;;;38.33;16.25;;;;;;;-146.25;100.00;52664.22;2078526;28;31630;-70
2023/11/22 03:18:03;;;;;;;32.92;14.45;;;;;;;-146.25;100.00;52633.81;2078772;28;34427;-70
2023/11/22 03:19:05;;;;;;;39.30;16.38;;;;;;;-146.25;100.00;52639.91;2086745;28;26322;-69
2023/11/22 03:20:11;;;;;;;37.53;16.20;;;;;;;-146.25;100.00;52639.91;2070975;28;31427;-70
2023/11/22 03:21:15;;;;;;;37.42;16.45;;;;;;;-146.25;100.00;52625.72;2071422;28;29153;-70
2023/11/22 03:22:17;;;;;;;36.53;15.73;;;;;;;-146.25;100.00;52627.75;2079093;28;29758;-70
2023/11/22 03:23:18;;;;;;;33.90;14.90;;;;;;;-146.25;100.00;52668.28;2078839;28;30325;-71
2023/11/22 03:24:20;;;;;;;38.35;15.40;;;;;;;-146.25;100.00;52615.56;2078691;28;22051;-69
2023/11/22 03:25:23;;;;;;;32.65;15.35;;;;;;;-146.25;100.00;52633.81;2079213;28;20469;-70
2023/11/22 03:26:27;;;;;;;37.67;15.60;;;;;;;-146.25;100.00;52611.50;2079223;28;20054;-71
2023/11/22 03:27:29;;;;;;;33.63;15.60;;;;;;;-146.25;100.00;52643.97;2087057;28;28353;-71
2023/11/22 03:28:31;;;;;;;37.15;15.57;;;;;;;-146.25;100.00;52654.09;2078863;28;28835;-71
2023/11/22 03:29:34;;;;;;;27.73;13.82;;;;;;;-146.25;100.00;52648.00;2083862;28;20029;-71
2023/11/22 03:30:37;;;;;;;33.30;14.23;;;;;;;-146.25;100.00;52656.13;2087430;28;20045;-71
2023/11/22 03:31:39;;;;;;;32.28;14.73;;;;;;;-146.25;100.00;52668.28;2087638;28;28453;-70
2023/11/22 03:32:41;;;;;;;31.08;13.82;;;;;;;-146.25;100.00;52643.97;2089258;28;24341;-71
2023/11/22 03:33:45;;;;;;;35.13;15.95;;;;;;;-146.25;100.00;52617.59;2089002;28;20037;-71
2023/11/22 03:34:47;;;;;;;31.15;13.38;;;;;;;-146.25;100.00;52639.91;2088264;28;33068;-71
2023/11/22 03:35:49;;;;;;;35.05;14.90;;;;;;;-146.25;100.00;52611.50;2089664;28;20042;-70
2023/11/22 03:36:51;;;;;;;31.92;14.10;;;;;;;-146.25;100.00;52648.00;2089604;28;20999;-71
2023/11/22 03:37:56;;;;;;;30.10;14.23;;;;;;;-146.25;100.00;52623.69;2088895;28;35466;-72
2023/11/22 03:38:58;;;;;;;29.23;13.68;;;;;;;-146.25;100.00;52654.09;2089006;28;20131;-70
2023/11/22 03:40:00;;;;;;;26.70;13.10;;;;;;;-146.25;100.00;52627.75;2088952;28;29648;-72
2023/11/22 03:41:02;;;;;;;29.33;13.85;;;;;;;-146.25;100.00;52623.69;2087871;28;33215;-72
2023/11/22 03:42:04;;;;;;;28.60;12.93;;;;;;;-146.25;100.00;52668.28;2088760;28;26604;-72
2023/11/22 03:43:09;;;;;;;27.80;12.45;;;;;;;-146.25;100.00;52625.72;2096670;28;20684;-71
2023/11/22 03:44:11;;;;;;;27.02;12.00;;;;;;;-146.25;100.00;52611.50;2089671;28;20050;-71
2023/11/22 03:45:14;;;;;;;28.80;13.15;;;;;;;-146.25;100.00;52635.84;2088037;28;31721;-72
2023/11/22 03:46:16;;;;;;;27.90;12.98;;;;;;;-146.25;100.00;52639.91;2088868;28;20109;-72
2023/11/22 03:47:21;;;;;;;30.45;13.80;;;;;;;-146.25;100.00;52684.50;2088600;28;31832;-71
2023/11/22 03:48:23;;;;;;;26.83;12.93;;;;;;;-146.25;100.00;52641.94;2088091;28;31810;-72
2023/11/22 03:49:26;;;;;;;26.30;12.50;;;;;;;-146.25;100.00;52664.22;2088826;28;20041;-72
2023/11/22 03:50:30;;;;;;;33.88;13.43;;;;;;;-146.25;100.00;52654.09;2089231;28;27652;-72
2023/11/22 03:51:32;;;;;;;24.92;12.43;;;;;;;-146.25;100.00;52658.16;2088920;28;26745;-72
2023/11/22 03:52:33;;;;;;;25.52;10.68;;;;;;;-146.25;100.00;52635.84;2088885;28;36751;-72
2023/11/22 03:53:35;;;;;;;22.15;10.52;;;;;;;-146.25;100.00;52615.56;2088763;28;37095;-73
2023/11/22 03:54:39;;;;;;;25.15;12.23;;;;;;;-146.25;100.00;52668.28;2089431;28;20068;-73
2023/11/22 03:55:41;;;;;;;29.48;13.07;;;;;;;-146.25;100.00;52635.84;2088429;28;37861;-73
2023/11/22 03:56:44;;;;;;;36.80;13.02;;;;;;;-146.25;100.00;52688.56;2088928;28;32592;-73
2023/11/22 03:57:45;;;;;;;29.25;12.35;;;;;;;-146.25;100.00;52674.38;2089276;28;20056;-73
2023/11/22 03:58:48;;;;;;;31.55;13.75;;;;;;;-146.25;100.00;52650.03;2088515;28;38498;-73
2023/11/22 03:59:50;;;;;;;26.17;11.60;;;;;;;-146.25;100.00;52656.13;2088779;28;34575;-74
2023/11/22 04:00:52;;;;;;;28.30;13.23;;;;;;;-146.25;100.00;52672.34;2088606;28;34619;-73
2023/11/22 04:01:54;;;;;;;30.48;13.73;;;;;;;-146.25;100.00;52627.75;2088711;28;37621;-72
2023/11/22 04:02:59;;;;;;;30.73;14.05;;;;;;;-146.25;100.00;52635.84;2089243;28;20049;-74
2023/11/22 04:04:03;;;;;;;28.23;12.63;;;;;;;-146.25;100.00;52609.50;2080355;28;37235;-74
2023/11/22 04:05:07;;;;;;;29.70;13.10;;;;;;;-146.25;100.00;52668.28;2080485;28;33718;-73
2023/11/22 04:06:10;;;;;;;28.95;12.98;;;;;;;-146.25;100.00;52650.03;2080222;28;23486;-73
2023/11/22 04:07:12;;;;;;;30.15;12.73;;;;;;;-146.25;100.00;52631.78;2080135;28;38382;-74
2023/11/22 04:08:14;;;;;;;29.80;12.88;;;;;;;-146.25;100.00;52660.19;2071859;28;34367;-74
2023/11/22 04:09:20;;;;;;;29.42;12.88;;;;;;;-146.25;100.00;52686.53;2071636;28;35527;-74
2023/11/22 04:10:21;;;;;;;27.70;12.93;;;;;;;-146.25;100.00;52639.91;2080480;28;35602;-75
2023/11/22 04:11:23;;;;;;;31.23;14.75;;;;;;;-146.25;100.00;52631.78;2081378;28;20030;-74
2023/11/22 04:12:26;;;;;;;31.38;13.88;;;;;;;-146.25;100.00;52678.44;2080524;28;36942;-75
2023/11/22 04:13:28;;;;;;;30.55;14.18;;;;;;;-146.25;100.00;52660.19;2080208;28;33960;-75
2023/11/22 04:14:29;;;;;;;34.10;14.38;;;;;;;-146.25;100.00;52633.81;2080601;28;34917;-75
2023/11/22 04:15:31;;;;;;;30.65;12.13;;;;;;;-146.25;100.00;52672.34;2080391;28;37212;-75
2023/11/22 04:16:36;;;;;;;34.38;13.77;;;;;;;-146.25;100.00;52656.13;2081102;28;20948;-74
2023/11/22 04:17:38;;;;;;;25.35;11.93;;;;;;;-146.25;100.00;52637.88;2079706;28;38212;-75
2023/11/22 04:18:40;;;;;;;25.67;12.88;;;;;;;-146.25;100.00;52648.00;2079910;28;35753;-75
2023/11/22 04:19:42;;;;;;;26.92;11.93;;;;;;;-146.25;100.00;52643.97;2080111;28;20045;-76
2023/11/22 04:20:44;;;;;;;29.35;13.68;;;;;;;-146.25;100.00;52652.06;2080414;28;37705;-74
2023/11/22 04:21:46;;;;;;;27.13;12.50;;;;;;;-146.25;100.00;52660.19;2080529;28;36000;-75
2023/11/22 04:22:50;;;;;;;29.45;12.77;;;;;;;-146.25;100.00;52611.50;2081080;28;20135;-74
2023/11/22 04:23:52;;;;;;;23.30;11.23;;;;;;;-146.25;100.00;52650.03;2087377;28;34262;-76
2023/11/22 04:24:55;;;;;;;27.00;12.15;;;;;;;-146.25;100.00;52654.09;2088320;28;36329;-75
2023/11/22 04:26:00;;;;;;;28.90;12.10;;;;;;;-146.25;100.00;52643.97;2089261;28;20033;-76
2023/11/22 04:27:02;;;;;;;27.23;12.75;;;;;;;-146.25;100.00;52621.66;2089606;28;34175;-76
2023/11/22 04:28:05;;;;;;;30.15;13.75;;;;;;;-146.25;100.00;52660.19;2088830;28;28477;-74
2023/11/22 04:29:07;;;;;;;33.85;14.20;;;;;;;-146.25;100.00;52639.91;2089113;28;20752;-75
2023/11/22 04:30:13;;;;;;;29.17;13.90;;;;;;;-146.25;100.00;52676.41;2088285;28;34804;-76
2023/11/22 04:31:15;;;;;;;28.95;12.48;;;;;;;-146.25;100.00;52660.19;2088652;28;36366;-76
2023/11/22 04:32:17;;;;;;;29.88;13.90;;;;;;;-146.25;100.00;52629.75;2088618;28;32101;-76
2023/11/22 04:33:20;;;;;;;32.00;13.35;;;;;;;-146.25;100.00;52637.88;2088399;28;35992;-76
2023/11/22 04:34:23;;;;;;;26.38;12.70;;;;;;;-146.25;100.00;52627.75;2088758;28;34024;-76
2023/11/22 04:35:25;;;;;;;33.63;13.38;;;;;;;-146.25;100.00;52625.72;2087663;28;33649;-76
2023/11/22 04:36:27;;;;;;;28.42;13.18;;;;;;;-146.25;100.00;52664.22;2087842;28;32122;-76
2023/11/22 04:37:31;;;;;;;30.13;12.38;;;;;;;-146.25;100.00;52631.78;2088580;28;33190;-76
2023/11/22 04:38:34;;;;;;;33.95;14.32;;;;;;;-146.25;100.00;52639.91;2088122;28;36886;-76